Cochise, AZ

7:43 AM MST on January 31, 2015 (GMT -0700)
Fort Huachuca | Change Station
CLOSE
Current Station
Airport
Location: Fort Huachuca,
Elevation: 4767 ft
Nearby Weather Stations

Elev 4767 ft 31.61 °N, 110.43 °W | Updated 21 hours ago

Rain
Rain
46 °F
Feels Like 46 °F
N
12
Wind Variable Wind from SSE
Gusts 18 mph

Today
High -- | Low -- °F
--% Chance of Precip.
Yesterday
High -- | Low -- °F
Precip. -- in
7:13 AM 5:52 PM
Waxing Gibbous, 90% visible
Pressure 30.01 in
Visibility 10.0 miles
Clouds Scattered Clouds 500 ft
Overcast 3500 ft
Dew Point 45 °F
Humidity 96%
Rainfall 0.39 in
Snow Depth Not available.
UV 1 out of 12
Pollen .50 out of 12
Air Quality Not available.
Flu Activity Not available.
SPECI KALK 301716Z AUTO 11013KT 10SM -RA SCT005 OVC035 09/09 A3001 RMK AO2 P0001 TSNO $

More Conditions Fewer Conditions

Pressure 30.01 in
Visibility 10.0 miles
Clouds Scattered Clouds 500 ft
Overcast 3500 ft
Dew Point 45 °F
Humidity 96%
Rainfall 0.39 in
Snow Depth Not available.
UV 1 out of 12
Pollen .50 out of 12
Air Quality Not available.
Flu Activity Not available.
SPECI KALK 301716Z AUTO 11013KT 10SM -RA SCT005 OVC035 09/09 A3001 RMK AO2 P0001 TSNO $

More Conditions Fewer Conditions

Nowcast | as of 6:09 am MST on January 31, 2015

Showers will continue across Southeast Arizona through 8 am. Some of these showers will produce moderate rain with rainfall rates of two to three tenths of an inch per hour. Movement of the showers is generally to the northeast 15 to 25 mph. Periods of snow will continue this morning above 7500 feet.

×

10-Day Weather Forecast

Almanac

Astronomy

Jan. 31, 2015 Rise Set
Actual Time
Civil Twilight
Nautical Twilight
Astronomical Twilight
Moon
Length of Visible Light
Length of Day
Tomorrow will be .
, % of the Moon is Illuminated

Today's Extremes

State Highs State Lows

Community

WunderPhotos

Upload Photos

1,792,064 photos uploaded!

WunderBlogs® & News

Nearby

Air Quality

  Air Quality AQ Index Pollutant
Not available.

Snow Depth

Station Depth Elevation

Earthquake Activity

City Distance Mag. Time & Date
Minimum magnitude displayed is 2.5.

Coastal Water Temperatures

Place Temperature

Nearby Weather Stations